sensor_id;sensor_type;location;lat;lon;timestamp;pressure;altitude;pressure_sealevel;temperature;humidity
70370;BME280;57790;51.356;-2.906;2023-05-20T00:02:31;102886.56;;;17.91;100.00
70370;BME280;57790;51.356;-2.906;2023-05-20T00:05:32;102891.25;;;17.89;100.00
70370;BME280;57790;51.356;-2.906;2023-05-20T00:08:32;102891.59;;;17.86;100.00
70370;BME280;57790;51.356;-2.906;2023-05-20T00:11:32;102889.38;;;17.81;100.00
70370;BME280;57790;51.356;-2.906;2023-05-20T00:14:33;102893.06;;;17.80;100.00
70370;BME280;57790;51.356;-2.906;2023-05-20T00:17:33;102883.63;;;17.76;100.00
70370;BME280;57790;51.356;-2.906;2023-05-20T00:20:34;102888.97;;;17.76;100.00
70370;BME280;57790;51.356;-2.906;2023-05-20T00:23:34;102883.25;;;17.71;100.00
70370;BME280;57790;51.356;-2.906;2023-05-20T00:26:35;102889.06;;;17.66;100.00
70370;BME280;57790;51.356;-2.906;2023-05-20T00:29:35;102885.84;;;17.63;100.00
70370;BME280;57790;51.356;-2.906;2023-05-20T00:32:35;102888.00;;;17.59;100.00
70370;BME280;57790;51.356;-2.906;2023-05-20T00:35:36;102877.06;;;17.52;100.00
70370;BME280;57790;51.356;-2.906;2023-05-20T00:38:36;102885.94;;;17.53;100.00
70370;BME280;57790;51.356;-2.906;2023-05-20T00:41:37;102887.22;;;17.49;100.00
70370;BME280;57790;51.356;-2.906;2023-05-20T00:44:38;102887.72;;;17.44;100.00
70370;BME280;57790;51.356;-2.906;2023-05-20T00:47:38;102887.03;;;17.42;100.00
70370;BME280;57790;51.356;-2.906;2023-05-20T00:50:39;102881.41;;;17.36;100.00
70370;BME280;57790;51.356;-2.906;2023-05-20T00:53:40;102884.97;;;17.36;100.00
70370;BME280;57790;51.356;-2.906;2023-05-20T00:56:41;102883.88;;;17.29;100.00
70370;BME280;57790;51.356;-2.906;2023-05-20T00:59:42;102884.03;;;17.28;100.00
70370;BME280;57790;51.356;-2.906;2023-05-20T01:02:42;102885.34;;;17.23;100.00
70370;BME280;57790;51.356;-2.906;2023-05-20T01:05:43;102882.00;;;17.21;100.00
70370;BME280;57790;51.356;-2.906;2023-05-20T01:08:43;102883.94;;;17.19;100.00
70370;BME280;57790;51.356;-2.906;2023-05-20T01:11:49;102869.88;;;17.17;100.00
70370;BME280;57790;51.356;-2.906;2023-05-20T01:14:55;102874.69;;;17.14;100.00
70370;BME280;57790;51.356;-2.906;2023-05-20T01:18:01;102872.66;;;17.08;100.00
70370;BME280;57790;51.356;-2.906;2023-05-20T01:21:06;102862.50;;;17.02;100.00
70370;BME280;57790;51.356;-2.906;2023-05-20T01:24:08;102862.66;;;17.00;100.00
70370;BME280;57790;51.356;-2.906;2023-05-20T01:27:09;102859.47;;;16.97;100.00
70370;BME280;57790;51.356;-2.906;2023-05-20T01:30:10;102865.25;;;16.92;100.00
70370;BME280;57790;51.356;-2.906;2023-05-20T01:33:11;102863.56;;;16.91;100.00
70370;BME280;57790;51.356;-2.906;2023-05-20T01:36:12;102868.25;;;16.89;100.00
70370;BME280;57790;51.356;-2.906;2023-05-20T01:39:13;102868.41;;;16.87;100.00
70370;BME280;57790;51.356;-2.906;2023-05-20T01:42:14;102866.72;;;16.86;100.00
70370;BME280;57790;51.356;-2.906;2023-05-20T01:45:15;102866.72;;;16.86;100.00
70370;BME280;57790;51.356;-2.906;2023-05-20T01:48:15;102864.34;;;16.83;100.00
70370;BME280;57790;51.356;-2.906;2023-05-20T01:51:16;102864.50;;;16.82;100.00
70370;BME280;57790;51.356;-2.906;2023-05-20T01:54:17;102863.97;;;16.78;100.00
70370;BME280;57790;51.356;-2.906;2023-05-20T01:57:19;102875.97;;;16.74;100.00
70370;BME280;57790;51.356;-2.906;2023-05-20T02:00:20;102865.69;;;16.70;100.00
70370;BME280;57790;51.356;-2.906;2023-05-20T02:03:20;102865.41;;;16.63;100.00
70370;BME280;57790;51.356;-2.906;2023-05-20T02:06:21;102863.34;;;16.57;100.00
70370;BME280;57790;51.356;-2.906;2023-05-20T02:09:21;102866.31;;;16.54;100.00
70370;BME280;57790;51.356;-2.906;2023-05-20T02:12:22;102876.03;;;16.55;100.00
70370;BME280;57790;51.356;-2.906;2023-05-20T02:15:22;102874.94;;;16.48;100.00
70370;BME280;57790;51.356;-2.906;2023-05-20T02:18:22;102873.56;;;16.44;100.00
70370;BME280;57790;51.356;-2.906;2023-05-20T02:21:25;102867.28;;;16.35;100.00
70370;BME280;57790;51.356;-2.906;2023-05-20T02:24:25;102871.38;;;16.29;100.00
70370;BME280;57790;51.356;-2.906;2023-05-20T02:27:26;102865.84;;;16.31;100.00
70370;BME280;57790;51.356;-2.906;2023-05-20T02:30:26;102864.78;;;16.24;100.00
70370;BME280;57790;51.356;-2.906;2023-05-20T02:33:27;102861.28;;;16.14;100.00
70370;BME280;57790;51.356;-2.906;2023-05-20T02:36:28;102862.13;;;16.14;100.00
70370;BME280;57790;51.356;-2.906;2023-05-20T02:39:28;102863.56;;;16.09;100.00
70370;BME280;57790;51.356;-2.906;2023-05-20T02:42:28;102868.22;;;16.06;100.00
70370;BME280;57790;51.356;-2.906;2023-05-20T02:45:29;102870.19;;;16.04;100.00
70370;BME280;57790;51.356;-2.906;2023-05-20T02:48:29;102863.44;;;16.00;100.00
70370;BME280;57790;51.356;-2.906;2023-05-20T02:51:30;102873.31;;;16.00;100.00
70370;BME280;57790;51.356;-2.906;2023-05-20T02:54:32;102870.78;;;15.98;100.00
70370;BME280;57790;51.356;-2.906;2023-05-20T02:57:33;102870.94;;;15.97;100.00
70370;BME280;57790;51.356;-2.906;2023-05-20T03:00:37;102864.88;;;15.95;100.00
70370;BME280;57790;51.356;-2.906;2023-05-20T03:03:39;102869.41;;;15.85;100.00
70370;BME280;57790;51.356;-2.906;2023-05-20T03:06:40;102873.06;;;15.84;100.00
70370;BME280;57790;51.356;-2.906;2023-05-20T03:09:43;102874.22;;;15.81;100.00
70370;BME280;57790;51.356;-2.906;2023-05-20T03:12:43;102864.78;;;15.77;100.00
70370;BME280;57790;51.356;-2.906;2023-05-20T03:15:44;102861.97;;;15.69;100.00
70370;BME280;57790;51.356;-2.906;2023-05-20T03:18:45;102863.13;;;15.66;100.00
70370;BME280;57790;51.356;-2.906;2023-05-20T03:21:45;102850.56;;;15.57;100.00
70370;BME280;57790;51.356;-2.906;2023-05-20T03:24:46;102856.75;;;15.58;100.00
70370;BME280;57790;51.356;-2.906;2023-05-20T03:27:47;102855.38;;;15.44;100.00
70370;BME280;57790;51.356;-2.906;2023-05-20T03:30:47;102853.13;;;15.39;100.00
70370;BME280;57790;51.356;-2.906;2023-05-20T03:33:48;102842.97;;;15.33;100.00
70370;BME280;57790;51.356;-2.906;2023-05-20T03:36:50;102845.41;;;15.27;100.00
70370;BME280;57790;51.356;-2.906;2023-05-20T03:39:51;102847.50;;;15.23;100.00
70370;BME280;57790;51.356;-2.906;2023-05-20T03:42:51;102840.75;;;15.29;100.00
70370;BME280;57790;51.356;-2.906;2023-05-20T03:45:51;102846.38;;;15.26;100.00
70370;BME280;57790;51.356;-2.906;2023-05-20T03:48:52;102845.81;;;15.22;100.00
70370;BME280;57790;51.356;-2.906;2023-05-20T03:51:52;102851.56;;;15.17;100.00
70370;BME280;57790;51.356;-2.906;2023-05-20T03:54:53;102841.75;;;15.08;100.00
70370;BME280;57790;51.356;-2.906;2023-05-20T03:57:53;102853.41;;;15.07;100.00
70370;BME280;57790;51.356;-2.906;2023-05-20T04:00:54;102848.78;;;15.09;100.00
70370;BME280;57790;51.356;-2.906;2023-05-20T04:03:55;102853.81;;;15.03;100.00
70370;BME280;57790;51.356;-2.906;2023-05-20T04:06:55;102845.94;;;15.01;100.00
70370;BME280;57790;51.356;-2.906;2023-05-20T04:09:56;102851.84;;;14.95;100.00
70370;BME280;57790;51.356;-2.906;2023-05-20T04:12:58;102843.53;;;14.88;100.00
70370;BME280;57790;51.356;-2.906;2023-05-20T04:15:58;102846.22;;;14.79;100.00
70370;BME280;57790;51.356;-2.906;2023-05-20T04:19:01;102852.53;;;14.78;100.00
70370;BME280;57790;51.356;-2.906;2023-05-20T04:22:01;102846.75;;;14.73;100.00
70370;BME280;57790;51.356;-2.906;2023-05-20T04:25:02;102853.34;;;14.69;100.00
70370;BME280;57790;51.356;-2.906;2023-05-20T04:28:04;102844.06;;;14.63;100.00
70370;BME280;57790;51.356;-2.906;2023-05-20T04:31:04;102838.88;;;14.62;100.00
70370;BME280;57790;51.356;-2.906;2023-05-20T04:34:05;102844.22;;;14.62;100.00
70370;BME280;57790;51.356;-2.906;2023-05-20T04:37:05;102843.50;;;14.59;100.00
70370;BME280;57790;51.356;-2.906;2023-05-20T04:40:09;102846.28;;;14.58;100.00
70370;BME280;57790;51.356;-2.906;2023-05-20T04:43:11;102839.56;;;14.54;100.00
70370;BME280;57790;51.356;-2.906;2023-05-20T04:46:12;102843.47;;;14.50;100.00
70370;BME280;57790;51.356;-2.906;2023-05-20T04:49:13;102839.00;;;14.50;100.00
70370;BME280;57790;51.356;-2.906;2023-05-20T04:52:14;102835.63;;;14.48;100.00
70370;BME280;57790;51.356;-2.906;2023-05-20T04:55:14;102834.63;;;14.49;100.00
70370;BME280;57790;51.356;-2.906;2023-05-20T04:58:15;102837.78;;;14.43;100.00
70370;BME280;57790;51.356;-2.906;2023-05-20T05:01:16;102836.59;;;14.47;100.00
70370;BME280;57790;51.356;-2.906;2023-05-20T05:04:16;102846.06;;;14.40;100.00
70370;BME280;57790;51.356;-2.906;2023-05-20T05:07:17;102841.72;;;14.39;100.00
70370;BME280;57790;51.356;-2.906;2023-05-20T05:10:17;102846.78;;;14.42;100.00
70370;BME280;57790;51.356;-2.906;2023-05-20T05:13:18;102842.97;;;14.35;100.00
70370;BME280;57790;51.356;-2.906;2023-05-20T05:16:18;102851.41;;;14.40;100.00
70370;BME280;57790;51.356;-2.906;2023-05-20T05:19:19;102846.34;;;14.37;100.00
70370;BME280;57790;51.356;-2.906;2023-05-20T05:22:19;102840.03;;;14.38;100.00
70370;BME280;57790;51.356;-2.906;2023-05-20T05:25:19;102845.50;;;14.37;100.00
70370;BME280;57790;51.356;-2.906;2023-05-20T05:28:20;102855.34;;;14.36;100.00
70370;BME280;57790;51.356;-2.906;2023-05-20T05:31:20;102858.41;;;14.32;100.00
70370;BME280;57790;51.356;-2.906;2023-05-20T05:34:21;102860.97;;;14.33;100.00
70370;BME280;57790;51.356;-2.906;2023-05-20T05:37:21;102867.00;;;14.35;100.00
70370;BME280;57790;51.356;-2.906;2023-05-20T05:40:22;102874.88;;;14.37;100.00
70370;BME280;57790;51.356;-2.906;2023-05-20T05:43:22;102869.94;;;14.32;100.00
70370;BME280;57790;51.356;-2.906;2023-05-20T05:46:22;102860.03;;;14.44;100.00
70370;BME280;57790;51.356;-2.906;2023-05-20T05:49:23;102860.88;;;14.44;100.00
70370;BME280;57790;51.356;-2.906;2023-05-20T05:52:23;102860.03;;;14.44;100.00
70370;BME280;57790;51.356;-2.906;2023-05-20T05:55:24;102861.25;;;14.40;100.00
70370;BME280;57790;51.356;-2.906;2023-05-20T05:58:24;102862.50;;;14.36;100.00
70370;BME280;57790;51.356;-2.906;2023-05-20T06:01:25;102858.00;;;14.36;100.00
70370;BME280;57790;51.356;-2.906;2023-05-20T06:04:25;102864.22;;;14.46;100.00
70370;BME280;57790;51.356;-2.906;2023-05-20T06:07:26;102857.66;;;14.50;100.00
70370;BME280;57790;51.356;-2.906;2023-05-20T06:10:26;102849.94;;;14.47;100.00
70370;BME280;57790;51.356;-2.906;2023-05-20T06:13:26;102855.28;;;14.47;100.00
70370;BME280;57790;51.356;-2.906;2023-05-20T06:16:27;102855.00;;;14.50;100.00
70370;BME280;57790;51.356;-2.906;2023-05-20T06:19:27;102852.63;;;14.57;100.00
70370;BME280;57790;51.356;-2.906;2023-05-20T06:22:28;102847.84;;;14.61;100.00
70370;BME280;57790;51.356;-2.906;2023-05-20T06:25:28;102844.34;;;14.70;100.00
70370;BME280;57790;51.356;-2.906;2023-05-20T06:28:29;102845.50;;;14.77;100.00
70370;BME280;57790;51.356;-2.906;2023-05-20T06:31:30;102847.63;;;14.83;100.00
70370;BME280;57790;51.356;-2.906;2023-05-20T06:34:30;102840.44;;;14.83;100.00
70370;BME280;57790;51.356;-2.906;2023-05-20T06:37:30;102842.44;;;14.91;100.00
70370;BME280;57790;51.356;-2.906;2023-05-20T06:40:31;102837.66;;;14.95;100.00
70370;BME280;57790;51.356;-2.906;2023-05-20T06:43:32;102835.13;;;14.93;100.00
70370;BME280;57790;51.356;-2.906;2023-05-20T06:46:33;102838.34;;;14.97;100.00
70370;BME280;57790;51.356;-2.906;2023-05-20T06:49:33;102835.53;;;14.98;100.00
70370;BME280;57790;51.356;-2.906;2023-05-20T06:52:34;102828.69;;;15.05;100.00
70370;BME280;57790;51.356;-2.906;2023-05-20T06:55:34;102828.38;;;15.08;100.00
70370;BME280;57790;51.356;-2.906;2023-05-20T06:58:35;102824.72;;;15.09;100.00
70370;BME280;57790;51.356;-2.906;2023-05-20T07:01:35;102826.56;;;15.09;100.00
70370;BME280;57790;51.356;-2.906;2023-05-20T07:04:35;102828.38;;;15.18;100.00
70370;BME280;57790;51.356;-2.906;2023-05-20T07:07:36;102822.31;;;15.16;100.00
70370;BME280;57790;51.356;-2.906;2023-05-20T07:10:36;102826.28;;;15.22;100.00
70370;BME280;57790;51.356;-2.906;2023-05-20T07:13:37;102835.25;;;15.30;100.00
70370;BME280;57790;51.356;-2.906;2023-05-20T07:16:37;102835.84;;;15.34;100.00
70370;BME280;57790;51.356;-2.906;2023-05-20T07:19:38;102836.25;;;15.39;100.00
70370;BME280;57790;51.356;-2.906;2023-05-20T07:22:38;102831.59;;;15.41;100.00
70370;BME280;57790;51.356;-2.906;2023-05-20T07:25:39;102832.72;;;15.48;100.00
70370;BME280;57790;51.356;-2.906;2023-05-20T07:28:39;102827.50;;;15.46;100.00
70370;BME280;57790;51.356;-2.906;2023-05-20T07:31:40;102825.94;;;15.54;100.00
70370;BME280;57790;51.356;-2.906;2023-05-20T07:34:40;102832.00;;;15.56;100.00
70370;BME280;57790;51.356;-2.906;2023-05-20T07:37:41;102830.75;;;15.60;100.00
70370;BME280;57790;51.356;-2.906;2023-05-20T07:40:41;102824.97;;;15.64;100.00
70370;BME280;57790;51.356;-2.906;2023-05-20T07:43:41;102824.41;;;15.70;100.00
70370;BME280;57790;51.356;-2.906;2023-05-20T07:46:42;102829.88;;;15.79;100.00
70370;BME280;57790;51.356;-2.906;2023-05-20T07:49:42;102830.28;;;15.84;100.00
70370;BME280;57790;51.356;-2.906;2023-05-20T07:52:43;102828.69;;;15.91;100.00
70370;BME280;57790;51.356;-2.906;2023-05-20T07:55:44;102822.91;;;15.95;100.00
70370;BME280;57790;51.356;-2.906;2023-05-20T07:58:54;102832.19;;;16.01;100.00
70370;BME280;57790;51.356;-2.906;2023-05-20T08:01:55;102826.25;;;16.07;100.00
70370;BME280;57790;51.356;-2.906;2023-05-20T08:04:56;102822.00;;;16.14;100.00
70370;BME280;57790;51.356;-2.906;2023-05-20T08:07:56;102816.66;;;16.04;100.00
70370;BME280;57790;51.356;-2.906;2023-05-20T08:10:56;102813.50;;;16.19;100.00
70370;BME280;57790;51.356;-2.906;2023-05-20T08:13:57;102818.63;;;16.12;100.00
70370;BME280;57790;51.356;-2.906;2023-05-20T08:16:58;102818.47;;;16.14;100.00
70370;BME280;57790;51.356;-2.906;2023-05-20T08:19:59;102807.31;;;16.18;100.00
70370;BME280;57790;51.356;-2.906;2023-05-20T08:22:59;102803.25;;;16.14;100.00
70370;BME280;57790;51.356;-2.906;2023-05-20T08:26:00;102810.75;;;16.11;100.00
70370;BME280;57790;51.356;-2.906;2023-05-20T08:29:01;102802.88;;;16.09;100.00
70370;BME280;57790;51.356;-2.906;2023-05-20T08:32:02;102808.75;;;16.13;100.00
70370;BME280;57790;51.356;-2.906;2023-05-20T08:35:03;102807.47;;;16.17;100.00
70370;BME280;57790;51.356;-2.906;2023-05-20T08:38:04;102812.81;;;16.17;100.00
70370;BME280;57790;51.356;-2.906;2023-05-20T08:41:04;102798.28;;;16.19;100.00
70370;BME280;57790;51.356;-2.906;2023-05-20T08:44:07;102800.13;;;16.19;100.00
70370;BME280;57790;51.356;-2.906;2023-05-20T08:47:09;102797.19;;;16.22;100.00
70370;BME280;57790;51.356;-2.906;2023-05-20T08:50:11;102800.94;;;16.29;100.00
70370;BME280;57790;51.356;-2.906;2023-05-20T08:53:12;102797.88;;;16.24;100.00
70370;BME280;57790;51.356;-2.906;2023-05-20T08:56:13;102800.47;;;16.33;100.00
70370;BME280;57790;51.356;-2.906;2023-05-20T08:59:16;102797.66;;;16.35;100.00
70370;BME280;57790;51.356;-2.906;2023-05-20T09:02:17;102805.25;;;16.40;100.00
70370;BME280;57790;51.356;-2.906;2023-05-20T09:05:18;102796.22;;;16.41;100.00
70370;BME280;57790;51.356;-2.906;2023-05-20T09:08:19;102789.13;;;16.49;100.00
70370;BME280;57790;51.356;-2.906;2023-05-20T09:11:23;102786.56;;;16.48;100.00
70370;BME280;57790;51.356;-2.906;2023-05-20T09:14:23;102783.63;;;16.51;100.00
70370;BME280;57790;51.356;-2.906;2023-05-20T09:17:26;102774.97;;;16.57;100.00
70370;BME280;57790;51.356;-2.906;2023-05-20T09:20:27;102779.47;;;16.56;100.00
70370;BME280;57790;51.356;-2.906;2023-05-20T09:23:31;102779.69;;;16.63;100.00
70370;BME280;57790;51.356;-2.906;2023-05-20T09:26:31;102772.50;;;16.63;100.00
70370;BME280;57790;51.356;-2.906;2023-05-20T09:29:32;102768.72;;;16.66;100.00
70370;BME280;57790;51.356;-2.906;2023-05-20T09:32:33;102774.63;;;16.70;100.00
70370;BME280;57790;51.356;-2.906;2023-05-20T09:35:35;102776.69;;;16.76;100.00
70370;BME280;57790;51.356;-2.906;2023-05-20T09:38:39;102768.50;;;16.77;100.00
70370;BME280;57790;51.356;-2.906;2023-05-20T09:41:51;102771.56;;;16.82;100.00
70370;BME280;57790;51.356;-2.906;2023-05-20T09:44:54;102765.28;;;16.91;100.00
70370;BME280;57790;51.356;-2.906;2023-05-20T09:47:58;102770.19;;;16.96;100.00
70370;BME280;57790;51.356;-2.906;2023-05-20T09:51:00;102771.03;;;16.97;100.00
70370;BME280;57790;51.356;-2.906;2023-05-20T09:54:02;102752.78;;;17.00;100.00
70370;BME280;57790;51.356;-2.906;2023-05-20T09:57:06;102758.25;;;17.08;100.00
70370;BME280;57790;51.356;-2.906;2023-05-20T10:00:07;102757.75;;;17.13;100.00
70370;BME280;57790;51.356;-2.906;2023-05-20T10:03:07;102743.03;;;17.17;100.00
70370;BME280;57790;51.356;-2.906;2023-05-20T10:09:54;102750.00;;;17.28;100.00
70370;BME280;57790;51.356;-2.906;2023-05-20T10:13:18;102746.50;;;17.35;100.00
70370;BME280;57790;51.356;-2.906;2023-05-20T10:17:05;102742.69;;;17.38;100.00
70370;BME280;57790;51.356;-2.906;2023-05-20T10:20:07;102736.16;;;17.40;100.00
70370;BME280;57790;51.356;-2.906;2023-05-20T10:23:26;102741.72;;;17.47;100.00
70370;BME280;57790;51.356;-2.906;2023-05-20T10:26:37;102747.16;;;17.55;100.00
70370;BME280;57790;51.356;-2.906;2023-05-20T10:29:45;102741.97;;;17.62;100.00
70370;BME280;57790;51.356;-2.906;2023-05-20T10:32:54;102740.53;;;17.67;100.00
70370;BME280;57790;51.356;-2.906;2023-05-20T10:35:59;102730.16;;;17.72;100.00
70370;BME280;57790;51.356;-2.906;2023-05-20T10:39:00;102735.44;;;17.82;100.00
70370;BME280;57790;51.356;-2.906;2023-05-20T10:42:10;102726.03;;;17.86;100.00
70370;BME280;57790;51.356;-2.906;2023-05-20T10:45:10;102726.38;;;17.91;100.00
70370;BME280;57790;51.356;-2.906;2023-05-20T10:48:19;102715.69;;;17.99;100.00
70370;BME280;57790;51.356;-2.906;2023-05-20T10:51:19;102716.19;;;18.03;100.00
70370;BME280;57790;51.356;-2.906;2023-05-20T10:54:21;102714.03;;;18.06;100.00
70370;BME280;57790;51.356;-2.906;2023-05-20T10:57:22;102709.19;;;18.10;100.00
70370;BME280;57790;51.356;-2.906;2023-05-20T11:00:23;102711.22;;;18.16;100.00
70370;BME280;57790;51.356;-2.906;2023-05-20T11:03:24;102706.88;;;18.23;100.00
70370;BME280;57790;51.356;-2.906;2023-05-20T11:06:26;102708.72;;;18.31;100.00
70370;BME280;57790;51.356;-2.906;2023-05-20T11:09:30;102701.84;;;18.36;100.00
70370;BME280;57790;51.356;-2.906;2023-05-20T11:12:31;102707.22;;;18.36;100.00
70370;BME280;57790;51.356;-2.906;2023-05-20T11:15:34;102716.81;;;18.47;100.00
70370;BME280;57790;51.356;-2.906;2023-05-20T11:18:35;102704.03;;;18.49;100.00
70370;BME280;57790;51.356;-2.906;2023-05-20T11:21:42;102699.69;;;18.56;100.00
70370;BME280;57790;51.356;-2.906;2023-05-20T11:24:43;102702.88;;;18.60;100.00
70370;BME280;57790;51.356;-2.906;2023-05-20T11:27:44;102696.00;;;18.57;100.00
70370;BME280;57790;51.356;-2.906;2023-05-20T11:30:45;102695.66;;;18.60;100.00
70370;BME280;57790;51.356;-2.906;2023-05-20T11:33:46;102697.72;;;18.66;100.00
70370;BME280;57790;51.356;-2.906;2023-05-20T11:36:47;102697.06;;;18.72;100.00
70370;BME280;57790;51.356;-2.906;2023-05-20T11:40:02;102692.00;;;18.78;100.00
70370;BME280;57790;51.356;-2.906;2023-05-20T11:43:09;102694.69;;;18.86;100.00
70370;BME280;57790;51.356;-2.906;2023-05-20T11:46:10;102685.59;;;18.95;100.00
70370;BME280;57790;51.356;-2.906;2023-05-20T11:49:12;102673.16;;;19.02;100.00
70370;BME280;57790;51.356;-2.906;2023-05-20T11:52:12;102684.59;;;19.04;100.00
70370;BME280;57790;51.356;-2.906;2023-05-20T11:55:13;102676.84;;;19.09;100.00
70370;BME280;57790;51.356;-2.906;2023-05-20T11:58:15;102679.03;;;19.14;100.00
70370;BME280;57790;51.356;-2.906;2023-05-20T12:01:16;102670.44;;;19.18;100.00
70370;BME280;57790;51.356;-2.906;2023-05-20T12:04:17;102667.94;;;19.25;100.00
70370;BME280;57790;51.356;-2.906;2023-05-20T12:07:17;102652.75;;;19.32;100.00
70370;BME280;57790;51.356;-2.906;2023-05-20T12:10:18;102645.69;;;19.39;100.00
70370;BME280;57790;51.356;-2.906;2023-05-20T12:13:18;102641.28;;;19.46;100.00
70370;BME280;57790;51.356;-2.906;2023-05-20T12:16:18;102646.84;;;19.45;100.00
70370;BME280;57790;51.356;-2.906;2023-05-20T12:19:19;102639.41;;;19.47;100.00
70370;BME280;57790;51.356;-2.906;2023-05-20T12:22:19;102631.00;;;19.50;100.00
70370;BME280;57790;51.356;-2.906;2023-05-20T12:25:20;102621.06;;;19.58;100.00
70370;BME280;57790;51.356;-2.906;2023-05-20T12:28:20;102625.94;;;19.63;100.00
70370;BME280;57790;51.356;-2.906;2023-05-20T12:31:21;102626.91;;;19.70;100.00
70370;BME280;57790;51.356;-2.906;2023-05-20T12:34:21;102616.16;;;19.70;100.00
70370;BME280;57790;51.356;-2.906;2023-05-20T12:37:21;102620.44;;;19.79;100.00
70370;BME280;57790;51.356;-2.906;2023-05-20T12:40:22;102612.34;;;19.87;100.00
70370;BME280;57790;51.356;-2.906;2023-05-20T12:43:22;102614.66;;;19.90;100.00
70370;BME280;57790;51.356;-2.906;2023-05-20T12:46:23;102606.56;;;19.99;100.00
70370;BME280;57790;51.356;-2.906;2023-05-20T12:49:23;102594.41;;;20.03;100.00
70370;BME280;57790;51.356;-2.906;2023-05-20T12:52:25;102597.47;;;20.00;100.00
70370;BME280;57790;51.356;-2.906;2023-05-20T12:55:25;102599.13;;;20.01;100.00
70370;BME280;57790;51.356;-2.906;2023-05-20T12:58:26;102594.03;;;20.06;100.00
70370;BME280;57790;51.356;-2.906;2023-05-20T13:01:26;102588.97;;;20.11;100.00
70370;BME280;57790;51.356;-2.906;2023-05-20T13:04:26;102599.19;;;20.15;100.00
70370;BME280;57790;51.356;-2.906;2023-05-20T13:07:27;102597.34;;;20.16;100.00
70370;BME280;57790;51.356;-2.906;2023-05-20T13:10:27;102590.56;;;20.20;100.00
70370;BME280;57790;51.356;-2.906;2023-05-20T13:13:28;102593.06;;;20.21;100.00
70370;BME280;57790;51.356;-2.906;2023-05-20T13:16:28;102585.78;;;20.30;100.00
70370;BME280;57790;51.356;-2.906;2023-05-20T13:19:28;102582.53;;;20.35;100.00
70370;BME280;57790;51.356;-2.906;2023-05-20T13:22:29;102585.88;;;20.37;100.00
70370;BME280;57790;51.356;-2.906;2023-05-20T13:25:29;102576.44;;;20.41;100.00
70370;BME280;57790;51.356;-2.906;2023-05-20T13:28:30;102577.28;;;20.41;100.00
70370;BME280;57790;51.356;-2.906;2023-05-20T13:31:31;102581.47;;;20.44;100.00
70370;BME280;57790;51.356;-2.906;2023-05-20T13:34:31;102582.13;;;20.46;100.00
70370;BME280;57790;51.356;-2.906;2023-05-20T13:37:32;102574.50;;;20.49;100.00
70370;BME280;57790;51.356;-2.906;2023-05-20T13:40:32;102564.75;;;20.48;100.00
70370;BME280;57790;51.356;-2.906;2023-05-20T13:43:33;102573.28;;;20.52;100.00
70370;BME280;57790;51.356;-2.906;2023-05-20T13:46:33;102568.88;;;20.59;100.00
70370;BME280;57790;51.356;-2.906;2023-05-20T13:49:34;102569.97;;;20.65;100.00
70370;BME280;57790;51.356;-2.906;2023-05-20T13:52:34;102567.75;;;20.68;100.00
70370;BME280;57790;51.356;-2.906;2023-05-20T13:55:35;102554.00;;;20.78;100.00
70370;BME280;57790;51.356;-2.906;2023-05-20T13:58:36;102555.88;;;20.77;100.00
70370;BME280;57790;51.356;-2.906;2023-05-20T14:01:36;102551.59;;;20.83;100.00
70370;BME280;57790;51.356;-2.906;2023-05-20T14:04:37;102546.88;;;20.85;100.00
70370;BME280;57790;51.356;-2.906;2023-05-20T14:07:38;102548.16;;;20.89;100.00
70370;BME280;57790;51.356;-2.906;2023-05-20T14:10:39;102535.97;;;20.93;100.00
70370;BME280;57790;51.356;-2.906;2023-05-20T14:13:39;102535.59;;;20.96;100.00
70370;BME280;57790;51.356;-2.906;2023-05-20T14:16:40;102532.53;;;20.99;100.00
70370;BME280;57790;51.356;-2.906;2023-05-20T14:19:40;102536.06;;;21.00;100.00
70370;BME280;57790;51.356;-2.906;2023-05-20T14:22:40;102522.19;;;21.03;100.00
70370;BME280;57790;51.356;-2.906;2023-05-20T14:25:41;102523.31;;;21.08;100.00
70370;BME280;57790;51.356;-2.906;2023-05-20T14:28:41;102511.13;;;21.13;100.00
70370;BME280;57790;51.356;-2.906;2023-05-20T14:31:42;102507.84;;;21.17;100.00
70370;BME280;57790;51.356;-2.906;2023-05-20T14:34:42;102504.97;;;21.19;100.00
70370;BME280;57790;51.356;-2.906;2023-05-20T14:37:43;102505.81;;;21.19;100.00
70370;BME280;57790;51.356;-2.906;2023-05-20T14:40:44;102512.47;;;21.23;100.00
70370;BME280;57790;51.356;-2.906;2023-05-20T14:43:44;102515.13;;;21.31;100.00
70370;BME280;57790;51.356;-2.906;2023-05-20T14:46:44;102506.38;;;21.29;100.00
70370;BME280;57790;51.356;-2.906;2023-05-20T14:49:45;102502.06;;;21.35;100.00
70370;BME280;57790;51.356;-2.906;2023-05-20T14:52:46;102497.75;;;21.41;100.00
70370;BME280;57790;51.356;-2.906;2023-05-20T14:55:46;102499.91;;;21.45;100.00
70370;BME280;57790;51.356;-2.906;2023-05-20T14:58:46;102493.69;;;21.45;100.00
70370;BME280;57790;51.356;-2.906;2023-05-20T15:01:47;102487.25;;;21.46;100.00
70370;BME280;57790;51.356;-2.906;2023-05-20T15:04:47;102499.97;;;21.52;100.00
70370;BME280;57790;51.356;-2.906;2023-05-20T15:07:49;102487.94;;;21.54;100.00
70370;BME280;57790;51.356;-2.906;2023-05-20T15:10:50;102490.47;;;21.56;100.00
70370;BME280;57790;51.356;-2.906;2023-05-20T15:13:50;102489.69;;;21.62;100.00
70370;BME280;57790;51.356;-2.906;2023-05-20T15:16:51;102485.13;;;21.62;100.00
70370;BME280;57790;51.356;-2.906;2023-05-20T15:19:51;102481.84;;;21.67;100.00
70370;BME280;57790;51.356;-2.906;2023-05-20T15:22:52;102484.81;;;21.72;100.00
70370;BME280;57790;51.356;-2.906;2023-05-20T15:25:53;102468.63;;;21.72;100.00
70370;BME280;57790;51.356;-2.906;2023-05-20T15:28:53;102471.56;;;21.77;100.00